Flight Track Log - Related Links

Times and Time Zones

All times are in EDT time to prevent confusion due to time zone crossing. See the SKQ45 flight status page for this flight to view local times or setup timezone preferences in your user account.

Time Position Orientation Groundspeed Altitude Reporting Facility
EDT Latitude Longitude Course Direction KTS MPH feet Rate Location/Type
Fri 08:23:53 PM 36.0756 -79.6406 276° West 149 171 6,600  Level Atlanta Center
Fri 08:24:53 PM 36.0842 -79.7094 279° West 173 199 7,900 1,250 Climbing Atlanta Center
Fri 08:25:53 PM 36.0925 -79.7708 280° West 184 212 9,100 1,150 Climbing Atlanta Center
Fri 08:26:53 PM 36.1011 -79.8344 280° West 184 212 10,200 950 Climbing Atlanta Center
Fri 08:27:53 PM 36.1114 -79.8981 281° West 184 212 11,000 800 Climbing Atlanta Center
Fri 08:28:00 PM 36.1121 -79.9228 282° West  Level FlightAware
Fri 08:28:53 PM 36.1175 -79.9569 277° West 190 219 11,800  Level Atlanta Center
Fri 08:29:00 PM 36.1208 -79.9998 276° West  Level FlightAware
Fri 08:29:53 PM 36.1281 -80.0233 281° West 190 219 12,500  Level Atlanta Center
Fri 08:30:53 PM 36.1386 -80.0897 281° West 201 231 13,300 750 Climbing Atlanta Center
Fri 08:31:53 PM 36.1469 -80.1561 279° West 201 231 14,000 750 Climbing Atlanta Center
Fri 08:32:53 PM 36.1578 -80.2328 280° West 201 231 14,800 800 Climbing Atlanta Center
Fri 08:33:53 PM 36.1661 -80.3017 279° West 201 231 15,600 750 Climbing Atlanta Center
Fri 08:34:53 PM 36.1786 -80.3731 282° West 201 231 16,300 700 Climbing Atlanta Center
Fri 08:35:53 PM 36.1850 -80.4425 277° West 201 231 17,000 700 Climbing Atlanta Center
Fri 08:36:53 PM 36.1931 -80.5011 280° West 201 231 17,700 500 Climbing Atlanta Center
Fri 08:37:53 PM 36.2031 -80.5625 281° West 201 231 18,000 550 Climbing Atlanta Center
Fri 08:38:53 PM 36.2133 -80.6367 280° West 201 231 18,800 800 Climbing Atlanta Center
Fri 08:39:53 PM 36.2233 -80.6981 281° West 196 226 19,600 650 Climbing Atlanta Center
Fri 08:40:53 PM 36.2314 -80.7619 279° West 188 216 20,100 200 Climbing Atlanta Center
Fri 08:41:53 PM 36.2436 -80.8283 283° West 199 229 20,000 -50 Descending Atlanta Center
Fri 08:42:53 PM 36.2539 -80.9028 280° West 214 246 20,000  Level Atlanta Center
Fri 08:43:53 PM 36.2642 -80.9797 279° West 223 257 20,000  Level Atlanta Center
Fri 08:44:53 PM 36.2744 -81.0592 279° West 228 262 20,000  Level Atlanta Center
Fri 08:45:53 PM 36.2847 -81.1358 279° West 233 268 20,000  Level Atlanta Center
Fri 08:46:53 PM 36.2969 -81.2153 281° West 240 276 20,000  Level Atlanta Center
Fri 08:47:53 PM 36.3069 -81.2872 280° West 235 270 20,000  Level Atlanta Center
Fri 08:48:53 PM 36.3169 -81.3667 279° West 235 270 20,000  Level Atlanta Center
Fri 08:49:53 PM 36.3269 -81.4436 279° West 235 270 20,000  Level Atlanta Center
Fri 08:50:53 PM 36.3369 -81.5233 279° West 235 270 20,000  Level Atlanta Center
Fri 08:51:53 PM 36.3469 -81.6028 279° West 235 270 20,000  Level Atlanta Center
Fri 08:52:53 PM 36.3567 -81.6797 279° West 235 270 20,000  Level Atlanta Center
Fri 08:53:53 PM 36.3667 -81.7569 279° West 235 270 20,000  Level Atlanta Center
Fri 08:54:53 PM 36.3764 -81.8367 279° West 230 265 20,000  Level Atlanta Center
Fri 08:55:53 PM 36.3861 -81.9136 279° West 235 270 20,000  Level Atlanta Center
Fri 08:56:53 PM 36.3958 -81.9883 279° West 235 270 20,000  Level Atlanta Center
Fri 08:57:53 PM 36.4053 -82.0653 279° West 230 265 20,000  Level Atlanta Center
Fri 08:58:53 PM 36.4147 -82.1425 279° West 230 265 20,000  Level Atlanta Center
Fri 08:59:53 PM 36.4244 -82.2197 279° West 235 270 20,000  Level Atlanta Center
Fri 09:00:53 PM 36.4339 -82.2994 278° West 235 270 20,000  Level Atlanta Center
Fri 09:01:53 PM 36.4433 -82.3742 279° West 235 270 20,000  Level Atlanta Center
Fri 09:02:53 PM 36.4525 -82.4489 279° West 227 261 20,000  Level Atlanta Center
Fri 09:03:53 PM 36.4619 -82.5233 279° West 222 255 20,000  Level Atlanta Center
Fri 09:04:53 PM 36.4711 -82.6033 278° West 217 250 20,000  Level Atlanta Center
Fri 09:05:53 PM 36.4803 -82.6756 279° West 217 250 20,000  Level Atlanta Center
Fri 09:06:53 PM 36.4894 -82.7503 279° West 217 250 20,000  Level Atlanta Center
Fri 09:07:53 PM 36.4964 -82.8197 277° West 217 250 20,000  Level Atlanta Center
Fri 09:08:53 PM 36.5033 -82.8919 277° West 217 250 20,000  Level Atlanta Center
Fri 09:09:53 PM 36.5144 -82.9617 281° West 217 250 20,000  Level Atlanta Center
Fri 09:10:53 PM 36.5214 -83.0311 277° West 217 250 20,000  Level Atlanta Center
Fri 09:11:53 PM 36.5303 -83.1008 279° West 212 244 20,000  Level Atlanta Center
Fri 09:14:16 PM 36.5508 -83.2606 279° West 205 236 20,000  Level Indianapolis Center
Fri 09:15:17 PM 36.5597 -83.3314 279° West 207 238 20,000  Level Indianapolis Center
Fri 09:16:19 PM 36.5672 -83.4025 278° West 207 238 20,000  Level Indianapolis Center
Fri 09:17:20 PM 36.5756 -83.4733 278° West 206 237 20,000  Level Indianapolis Center
Fri 09:18:21 PM 36.5842 -83.5444 279° West 206 237 20,000  Level Indianapolis Center
Fri 09:19:23 PM 36.5917 -83.6158 277° West 208 239 20,000  Level Indianapolis Center
Fri 09:20:24 PM 36.6011 -83.7003 278° West 210 242 20,000  Level Indianapolis Center
Fri 09:21:25 PM 36.6092 -83.7714 278° West 208 239 20,000  Level Indianapolis Center
Fri 09:22:26 PM 36.6169 -83.8431 278° West 208 239 20,000  Level Indianapolis Center
Fri 09:23:28 PM 36.6256 -83.9169 278° West 213 245 20,000  Level Indianapolis Center
Fri 09:24:29 PM 36.6331 -83.9908 277° West 213 245 20,000  Level Indianapolis Center
Fri 09:25:30 PM 36.6422 -84.0653 279° West 216 249 20,000  Level Indianapolis Center
Fri 09:26:31 PM 36.6500 -84.1397 277° West 217 250 20,000  Level Indianapolis Center
Fri 09:27:33 PM 36.6583 -84.2150 278° West 219 252 20,000  Level Indianapolis Center
Fri 09:28:34 PM 36.6653 -84.2889 277° West 216 249 20,000  Level Indianapolis Center
Fri 09:29:35 PM 36.6747 -84.3639 279° West 218 251 20,000  Level Indianapolis Center
Fri 09:30:37 PM 36.6822 -84.4494 276° West 214 246 20,000  Level Indianapolis Center
Fri 09:31:38 PM 36.6897 -84.5125 278° West 216 249 20,000  Level Indianapolis Center
Fri 09:32:39 PM 36.6978 -84.5986 277° West 210 242 20,000  Level Indianapolis Center
Fri 09:33:40 PM 36.7061 -84.6706 278° West 210 242 20,000  Level Indianapolis Center
Fri 09:34:42 PM 36.7142 -84.7422 278° West 209 241 20,000  Level Indianapolis Center
Fri 09:35:43 PM 36.7211 -84.8136 277° West 209 241 20,000  Level Indianapolis Center
Fri 09:36:44 PM 36.7278 -84.8836 277° West 206 237 20,000  Level Indianapolis Center
Fri 09:37:45 PM 36.7344 -84.9544 277° West 205 236 20,000  Level Indianapolis Center
Fri 09:38:47 PM 36.7425 -85.0256 278° West 208 239 20,000  Level Indianapolis Center
Fri 09:39:48 PM 36.7497 -85.0967 277° West 206 237 20,000  Level Indianapolis Center
Fri 09:40:49 PM 36.7567 -85.1678 277° West 206 237 20,000  Level Indianapolis Center
Fri 09:41:51 PM 36.7653 -85.2508 277° West 203 234 20,000  Level Indianapolis Center
Fri 09:42:52 PM 36.7719 -85.3217 277° West 204 235 20,000  Level Indianapolis Center
Fri 09:43:53 PM 36.7781 -85.3922 276° West 206 237 20,000  Level Indianapolis Center
Fri 09:44:21 PM 36.7794 -85.4222 273° West 212 244 20,000  Level Memphis Center
Fri 09:45:21 PM 36.7908 -85.4992 280° West 212 244 20,000  Level Memphis Center
Fri 09:46:21 PM 36.7978 -85.5714 277° West 217 250 20,000  Level Memphis Center
Fri 09:47:21 PM 36.8044 -85.6358 277° West 217 250 20,000  Level Memphis Center
Fri 09:48:21 PM 36.8092 -85.7056 275° West 217 250 20,000  Level Memphis Center
Fri 09:49:22 PM 36.8158 -85.7750 277° West 217 250 20,000  Level Memphis Center
Fri 09:50:21 PM 36.8228 -85.8472 277° West 217 250 20,000  Level Memphis Center
Fri 09:51:21 PM 36.8314 -85.9167 279° West 217 250 20,000  Level Memphis Center
Fri 09:52:21 PM 36.8361 -85.9864 275° West 211 243 20,000  Level Memphis Center
Fri 09:53:21 PM 36.8428 -86.0561 277° West 211 243 20,000  Level Memphis Center
Fri 09:54:21 PM 36.8494 -86.1308 276° West 211 243 20,000  Level Memphis Center
Fri 09:55:21 PM 36.8558 -86.2006 277° West 211 243 20,000  Level Memphis Center
Fri 09:56:21 PM 36.8622 -86.2678 277° West 206 237 20,000  Level Memphis Center
Fri 09:57:21 PM 36.8689 -86.3372 277° West 206 237 20,000 -200 Level Memphis Center
Fri 09:58:21 PM 36.8753 -86.4069 277° West 206 237 19,600 -450 Descending Memphis Center
Fri 09:59:21 PM 36.8817 -86.4819 276° West 211 243 19,100 -500 Descending Memphis Center
Fri 10:00:21 PM 36.8883 -86.5594 276° West 218 251 18,600 -560 Descending Memphis Center
Fri 10:00:36 PM 36.8889 -86.5750 273° West 218 251 18,400 -522 Descending Memphis Center
Fri 10:01:07 PM 36.8900 -86.6164 272° West 215 247 18,200 -462 Descending Memphis Center
Fri 10:02:07 PM 36.8964 -86.6889 276° West 216 249 17,700 -298 Descending Memphis Center
Fri 10:03:08 PM 36.9050 -86.7689 278° West 217 250 17,600 -328 Descending Memphis Center
Fri 10:04:15 PM 36.9117 -86.8542 276° West 216 249 17,000 -520 Descending Memphis Center
Fri 10:05:15 PM 36.9178 -86.9264 276° West 220 253 16,500 -496 Descending Memphis Center
Fri 10:06:16 PM 36.9239 -87.0014 276° West 210 242 16,000 -545 Descending Memphis Center
Fri 10:07:16 PM 36.9278 -87.0714 274° West 208 239 15,400 -545 Descending Memphis Center
Fri 10:08:17 PM 36.9339 -87.1411 276° West 195 224 14,900 -492 Descending Memphis Center
Fri 10:09:18 PM 36.9419 -87.2136 278° West 205 236 14,400 -496 Descending Memphis Center
Fri 10:10:18 PM 36.9481 -87.2886 276° West 225 259 13,900 -496 Descending Memphis Center
Fri 10:11:19 PM 36.9542 -87.3714 275° West 232 267 13,400 -496 Descending Memphis Center
Fri 10:12:19 PM 36.9603 -87.4517 275° West 238 274 12,900 -496 Descending Memphis Center
Fri 10:13:20 PM 36.9664 -87.5372 275° West 242 278 12,400 -492 Descending Memphis Center
Fri 10:14:21 PM 36.9767 -87.6172 279° West 252 290 11,900 -496 Descending Memphis Center
Fri 10:15:21 PM 36.9803 -87.6978 273° West 239 275 11,400 -550 Descending Memphis Center
Fri 10:16:21 PM 36.9883 -87.7728 278° West 232 267 10,800 -500 Descending Memphis Center
Fri 10:17:21 PM 36.9939 -87.8506 275° West 227 261 10,400 -500 Descending Memphis Center
Fri 10:18:21 PM 36.9997 -87.9256 276° West 227 261 9,800 -750 Descending Memphis Center
Fri 10:19:21 PM 37.0056 -88.0086 275° West 233 268 8,900 -800 Descending Memphis Center
Fri 10:20:21 PM 37.0131 -88.0836 277° West 233 268 8,200 -800 Descending Memphis Center
Fri 10:21:21 PM 37.0208 -88.1667 277° West 233 268 7,300 -800 Descending Memphis Center
Fri 10:22:21 PM 37.0242 -88.2444 273° West 233 268 6,600 -850 Descending Memphis Center
Fri 10:23:21 PM 37.0297 -88.3247 275° West 233 268 5,600 -1,000 Descending Memphis Center
Fri 10:24:21 PM 37.0353 -88.4106 275° West 233 268 4,600 -950 Descending Memphis Center
Fri 10:25:21 PM 37.0428 -88.4908 277° West 238 274 3,700 -950 Descending Memphis Center
Fri 10:26:21 PM 37.0461 -88.5661 273° West 232 267 2,700 -750 Descending Memphis Center
Fri 10:27:21 PM 37.0489 -88.6311 273° West 213 245 2,200 -550 Descending Memphis Center
Fri 10:28:21 PM 37.0478 -88.6908 269° West 194 223 1,600 -400 Descending Memphis Center
Fri 10:29:21 PM 37.0442 -88.7353 264° West 159 183 1,400 -150 Descending Memphis Center
Fri 10:30:21 PM 37.0406 -88.7872 265° West 154 177 1,300 -100 Descending Memphis Center

Login

Don't have an account? Register now (free) for customized features, flight alerts, and more!